Terminal Aerodrome Forecast
Issued by NWS Spokane, WA

Home | Current Version | Previous Version | Text Only | Print | Product List | Glossary On
Versions: 1 2 3 4 5 6 7 8 9 10 11 12 13 14
000
FTUS46 KOTX 312323
TAFGEG
TAF
KGEG 312323Z 0100/0124 VRB04KT P6SM SCT250
     FM010800 11004KT P6SM SCT200 BKN250
     FM011600 16008KT P6SM SCT150 BKN200
     FM012100 21011KT P6SM BKN250=

USA.gov is the U.S. government's official web portal to all federal, state and local government web resources and services.